Time;durP1;ratioP1;P1;durP2;ratioP2;P2;SDS_P1;SDS_P2;PMS_P1;PMS_P2;Temp;Humidity;BMP_temperature;BMP_pressure;BME280_temperature;BME280_humidity;BME280_pressure;Samples;Min_cycle;Max_cycle;Signal;HPM_P1;HPM_P2
2023/03/20 00:01:26;;;;;;;48.30;28.70;;;;;;;;;;108811;1255;59212;-46
2023/03/20 00:03:53;;;;;;;51.00;29.30;;;;;;;;;;108827;1256;60862;-46
2023/03/20 00:06:25;;;;;;;44.80;27.40;;;;;;;;;;108921;1256;59885;-46
2023/03/20 00:08:53;;;;;;;45.60;26.70;;;;;;;;;;108684;1256;58144;-44
2023/03/20 00:11:29;;;;;;;43.90;25.80;;;;;;;;;;105484;1256;62620;-45
2023/03/20 00:14:00;;;;;;;45.70;26.20;;;;;;;;;;108974;1255;58106;-46
2023/03/20 00:16:31;;;;;;;47.10;28.00;;;;;;;;;;108838;1256;59498;-47
2023/03/20 00:19:05;;;;;;;45.20;25.90;;;;;;;;;;108964;1256;58201;-46
2023/03/20 00:21:34;;;;;;;45.50;28.90;;;;;;;;;;105472;1256;60313;-48
2023/03/20 00:24:02;;;;;;;41.20;25.00;;;;;;;;;;108889;1256;61976;-47
2023/03/20 00:26:47;;;;;;;;;;;;;;;;;;109010;1259;59833;-47
2023/03/20 00:29:18;;;;;;;38.30;23.00;;;;;;;;;;108851;1256;60564;-47
2023/03/20 00:31:46;;;;;;;42.60;23.20;;;;;;;;;;108854;1255;58828;-47
2023/03/20 00:34:16;;;;;;;44.10;26.40;;;;;;;;;;108950;1256;58398;-47
2023/03/20 00:36:46;;;;;;;46.90;27.60;;;;;;;;;;108804;1257;61652;-47
2023/03/20 00:39:14;;;;;;;46.60;28.10;;;;;;;;;;108868;1256;58387;-47
2023/03/20 00:41:54;;;;;;;45.50;28.50;;;;;;;;;;109064;1254;60050;-48
2023/03/20 00:44:30;;;;;;;49.50;28.40;;;;;;;;;;109059;1254;58699;-47
2023/03/20 00:46:59;;;;;;;47.80;29.30;;;;;;;;;;105884;1256;60453;-47
2023/03/20 00:49:28;;;;;;;50.70;30.20;;;;;;;;;;105562;1255;61143;-47
2023/03/20 00:51:56;;;;;;;48.50;29.70;;;;;;;;;;106713;1258;59539;-47
2023/03/20 00:54:25;;;;;;;49.00;27.80;;;;;;;;;;106451;1256;60881;-48
2023/03/20 00:56:53;;;;;;;43.40;27.60;;;;;;;;;;105395;1258;60406;-48
2023/03/20 00:59:22;;;;;;;48.00;28.00;;;;;;;;;;105435;1256;60514;-45
2023/03/20 01:01:49;;;;;;;45.80;28.50;;;;;;;;;;105765;1256;62076;-47
2023/03/20 01:04:18;;;;;;;43.10;26.20;;;;;;;;;;108922;1255;58414;-49
2023/03/20 01:06:46;;;;;;;44.20;26.30;;;;;;;;;;105841;1258;61385;-46
2023/03/20 01:09:14;;;;;;;44.50;25.80;;;;;;;;;;105222;1255;60457;-47
2023/03/20 01:11:42;;;;;;;43.10;25.70;;;;;;;;;;105290;1255;60377;-48
2023/03/20 01:14:14;;;;;;;43.00;25.40;;;;;;;;;;105266;1261;62044;-47
2023/03/20 01:16:42;;;;;;;38.70;24.20;;;;;;;;;;105390;1258;60439;-48
2023/03/20 01:19:13;;;;;;;41.00;24.90;;;;;;;;;;105506;1256;62199;-48
2023/03/20 01:21:41;;;;;;;43.20;25.80;;;;;;;;;;105329;1258;60500;-48
2023/03/20 01:24:09;;;;;;;48.60;27.50;;;;;;;;;;105267;1256;60422;-45
2023/03/20 01:26:39;;;;;;;41.20;24.80;;;;;;;;;;105542;1255;62010;-47
2023/03/20 01:29:14;;;;;;;41.00;24.10;;;;;;;;;;105845;1258;60439;-47
2023/03/20 01:31:43;;;;;;;42.20;23.60;;;;;;;;;;108845;1254;60736;-48
2023/03/20 01:34:10;;;;;;;39.40;23.60;;;;;;;;;;106004;1256;60650;-48
2023/03/20 01:36:39;;;;;;;44.20;24.80;;;;;;;;;;105419;1254;60540;-47
2023/03/20 01:39:08;;;;;;;43.30;25.70;;;;;;;;;;108632;1255;62329;-48
2023/03/20 01:41:38;;;;;;;46.00;26.80;;;;;;;;;;105916;1260;60515;-47
2023/03/20 01:44:33;;;;;;;46.20;25.40;;;;;;;;;;105413;1256;60748;-47
2023/03/20 01:47:01;;;;;;;44.50;26.00;;;;;;;;;;105448;1259;60579;-48
2023/03/20 01:49:49;;;;;;;44.70;25.40;;;;;;;;;;105597;1256;59921;-46
2023/03/20 01:52:19;;;;;;;47.10;26.40;;;;;;;;;;105684;1256;62234;-46
2023/03/20 01:54:47;;;;;;;48.30;26.10;;;;;;;;;;105698;1259;60469;-48
2023/03/20 01:57:17;;;;;;;46.70;26.70;;;;;;;;;;105429;1256;60847;-47
2023/03/20 01:59:47;;;;;;;46.10;28.40;;;;;;;;;;108886;1255;58492;-47
2023/03/20 02:02:20;;;;;;;45.50;27.10;;;;;;;;;;106105;1256;60471;-46
2023/03/20 02:04:50;;;;;;;48.30;28.20;;;;;;;;;;105382;1257;61187;-45
2023/03/20 02:07:19;;;;;;;48.30;26.60;;;;;;;;;;109014;1254;58319;-48
2023/03/20 02:10:08;;;;;;;46.80;26.70;;;;;;;;;;105620;1258;60770;-46
2023/03/20 02:12:48;;;;;;;45.90;26.30;;;;;;;;;;107624;1256;60586;-47
2023/03/20 02:15:25;;;;;;;44.80;26.60;;;;;;;;;;105204;1257;60543;-47
2023/03/20 02:18:13;;;;;;;47.80;27.50;;;;;;;;;;105301;1260;61133;-47
2023/03/20 02:20:42;;;;;;;45.70;25.60;;;;;;;;;;105209;1261;60435;-46
2023/03/20 02:23:23;;;;;;;44.60;27.00;;;;;;;;;;105279;1258;61244;-45
2023/03/20 02:26:11;;;;;;;40.70;24.30;;;;;;;;;;105343;1256;60404;-47
2023/03/20 02:28:52;;;;;;;49.10;29.50;;;;;;;;;;105211;1256;60489;-47
2023/03/20 02:31:24;;;;;;;49.20;25.90;;;;;;;;;;105400;1256;61923;-46
2023/03/20 02:33:52;;;;;;;48.10;28.10;;;;;;;;;;105205;1256;60458;-47
2023/03/20 02:36:31;;;;;;;48.60;27.00;;;;;;;;;;105177;1261;60934;-48
2023/03/20 02:39:02;;;;;;;43.10;25.20;;;;;;;;;;105351;1258;60382;-48
2023/03/20 02:41:48;;;;;;;39.70;23.80;;;;;;;;;;105225;1256;60291;-47
2023/03/20 02:44:29;;;;;;;38.50;24.10;;;;;;;;;;105527;1257;61518;-47
2023/03/20 02:47:03;;;;;;;41.00;23.50;;;;;;;;;;105368;1260;60349;-47
2023/03/20 02:49:44;;;;;;;36.90;22.40;;;;;;;;;;105229;1260;60832;-48
2023/03/20 02:52:14;;;;;;;36.90;22.70;;;;;;;;;;105227;1255;60556;-46
2023/03/20 02:54:45;;;;;;;32.70;20.30;;;;;;;;;;105221;1255;60422;-47
2023/03/20 02:57:19;;;;;;;35.00;21.30;;;;;;;;;;105169;1261;62085;-46
2023/03/20 02:59:56;;;;;;;34.70;20.20;;;;;;;;;;105324;1260;60414;-47
2023/03/20 03:02:34;;;;;;;36.80;20.90;;;;;;;;;;105304;1256;61358;-44
2023/03/20 03:05:06;;;;;;;37.10;21.90;;;;;;;;;;105275;1260;60607;-46
2023/03/20 03:07:35;;;;;;;32.80;22.20;;;;;;;;;;108835;1256;58586;-45
2023/03/20 03:10:03;;;;;;;37.90;23.20;;;;;;;;;;108854;1255;62157;-44
2023/03/20 03:12:33;;;;;;;36.00;21.70;;;;;;;;;;108903;1256;58517;-44
2023/03/20 03:15:01;;;;;;;36.50;22.20;;;;;;;;;;108823;1259;61002;-43
2023/03/20 03:17:32;;;;;;;37.30;21.80;;;;;;;;;;108812;1256;58670;-44
2023/03/20 03:20:14;;;;;;;35.70;21.60;;;;;;;;;;106400;1256;60533;-44
2023/03/20 03:22:42;;;;;;;34.30;20.00;;;;;;;;;;104575;1261;63449;-45
2023/03/20 03:25:11;;;;;;;34.90;20.70;;;;;;;;;;108762;1255;58549;-44
2023/03/20 03:27:40;;;;;;;33.00;19.80;;;;;;;;;;108877;1254;60497;-45
2023/03/20 03:30:12;;;;;;;35.10;21.40;;;;;;;;;;108796;1256;58345;-45
2023/03/20 03:32:50;;;;;;;30.10;19.20;;;;;;;;;;106269;1256;60426;-42
2023/03/20 03:35:19;;;;;;;33.90;19.70;;;;;;;;;;108970;1257;61226;-44
2023/03/20 03:37:50;;;;;;;30.30;19.20;;;;;;;;;;108891;1256;59053;-47
2023/03/20 03:40:39;;;;;;;29.60;18.20;;;;;;;;;;108947;1259;60849;-45
2023/03/20 03:43:12;;;;;;;31.80;19.60;;;;;;;;;;108883;1254;59310;-44
2023/03/20 03:45:43;;;;;;;34.30;20.40;;;;;;;;;;109093;1255;58484;-44
2023/03/20 03:48:18;;;;;;;33.20;20.60;;;;;;;;;;108913;1256;61276;-46
2023/03/20 03:50:51;;;;;;;31.00;19.10;;;;;;;;;;108895;1255;58467;-44
2023/03/20 03:53:26;;;;;;;34.30;19.70;;;;;;;;;;108939;1256;60638;-43
2023/03/20 03:55:56;;;;;;;31.20;20.00;;;;;;;;;;107732;1256;59966;-43
2023/03/20 03:58:35;;;;;;;31.70;19.00;;;;;;;;;;107789;1253;60416;-46
2023/03/20 04:01:04;;;;;;;27.90;17.60;;;;;;;;;;108036;1253;60897;-45
2023/03/20 04:03:35;;;;;;;29.80;19.20;;;;;;;;;;105487;1255;60569;-45
2023/03/20 04:06:03;;;;;;;28.40;17.80;;;;;;;;;;105516;1253;60626;-43
2023/03/20 04:08:33;;;;;;;31.30;18.90;;;;;;;;;;105322;1253;60442;-45
2023/03/20 04:11:01;;;;;;;27.90;17.10;;;;;;;;;;109021;1253;59307;-43
2023/03/20 04:13:30;;;;;;;26.40;16.10;;;;;;;;;;105466;1252;62586;-46
2023/03/20 04:15:58;;;;;;;27.80;16.40;;;;;;;;;;105571;1253;60393;-42
2023/03/20 04:18:32;;;;;;;27.30;15.50;;;;;;;;;;105772;1255;61671;-44
2023/03/20 04:21:01;;;;;;;27.40;16.40;;;;;;;;;;105425;1254;60403;-44
2023/03/20 04:23:28;;;;;;;30.50;18.10;;;;;;;;;;106854;1253;60428;-47
2023/03/20 04:25:58;;;;;;;27.70;17.00;;;;;;;;;;105456;1255;62283;-45
2023/03/20 04:28:26;;;;;;;28.00;17.50;;;;;;;;;;107692;1256;58375;-43
2023/03/20 04:31:19;;;;;;;30.60;17.50;;;;;;;;;;105577;1255;62023;-46
2023/03/20 04:34:02;;;;;;;29.70;18.40;;;;;;;;;;105593;1253;60513;-44
2023/03/20 04:36:52;;;;;;;31.00;17.70;;;;;;;;;;105598;1255;60516;-45
2023/03/20 04:39:24;;;;;;;30.70;18.30;;;;;;;;;;105562;1253;62111;-47
2023/03/20 04:41:53;;;;;;;33.50;18.30;;;;;;;;;;105713;1258;60340;-46
2023/03/20 04:44:22;;;;;;;34.40;19.90;;;;;;;;;;106232;1253;60346;-44
2023/03/20 04:46:50;;;;;;;34.00;18.70;;;;;;;;;;105929;1253;60535;-43
2023/03/20 04:49:21;;;;;;;30.60;18.60;;;;;;;;;;105553;1253;60435;-42
2023/03/20 04:51:49;;;;;;;29.20;17.40;;;;;;;;;;105455;1255;62102;-43
2023/03/20 04:54:27;;;;;;;28.90;17.10;;;;;;;;;;105162;1258;60289;-43
2023/03/20 04:56:55;;;;;;;31.00;19.20;;;;;;;;;;105612;1253;60576;-44
2023/03/20 04:59:23;;;;;;;22.70;15.70;;;;;;;;;;106101;1255;60525;-47
2023/03/20 05:01:57;;;;;;;34.30;16.90;;;;;;;;;;105565;1259;60339;-44
2023/03/20 05:04:26;;;;;;;33.80;15.80;;;;;;;;;;106256;1255;61856;-45
2023/03/20 05:06:55;;;;;;;29.50;17.20;;;;;;;;;;105824;1255;60426;-46
2023/03/20 05:09:27;;;;;;;27.90;16.10;;;;;;;;;;105844;1257;60757;-46
2023/03/20 05:11:56;;;;;;;33.60;15.90;;;;;;;;;;105655;1253;60336;-47
2023/03/20 05:14:42;;;;;;;25.70;15.30;;;;;;;;;;105740;1254;61201;-46
2023/03/20 05:17:48;;;;;;;25.70;15.70;;;;;;;;;;105627;1253;61928;-46
2023/03/20 05:20:39;;;;;;;35.60;18.70;;;;;;;;;;105921;1254;60559;-47
2023/03/20 05:23:20;;;;;;;26.60;16.60;;;;;;;;;;105726;1256;60401;-47
2023/03/20 05:26:06;;;;;;;31.80;18.70;;;;;;;;;;105773;1256;388144;-46
2023/03/20 05:29:26;;;;;;;26.30;17.40;;;;;;;;;;102556;1294;601310;-46
2023/03/20 05:32:12;;;;;;;30.60;19.50;;;;;;;;;;104771;1268;59236;-46
2023/03/20 05:35:00;;;;;;;32.50;20.40;;;;;;;;;;104687;1264;59811;-46
2023/03/20 05:37:46;;;;;;;35.60;20.00;;;;;;;;;;104383;1264;60643;-46
2023/03/20 05:40:31;;;;;;;36.60;24.20;;;;;;;;;;104168;1269;60367;-46
2023/03/20 05:43:23;;;;;;;33.60;21.60;;;;;;;;;;104179;1263;134969;-45
2023/03/20 05:46:05;;;;;;;33.10;22.60;;;;;;;;;;104588;1264;59042;-48
2023/03/20 05:48:54;;;;;;;29.00;19.90;;;;;;;;;;104921;1264;59056;-46
2023/03/20 05:51:43;;;;;;;30.30;19.70;;;;;;;;;;104766;1266;60688;-47
2023/03/20 05:54:22;;;;;;;26.90;19.10;;;;;;;;;;104780;1266;59062;-49
2023/03/20 05:57:02;;;;;;;25.60;17.60;;;;;;;;;;105317;1264;59805;-49
2023/03/20 05:59:54;;;;;;;26.30;16.20;;;;;;;;;;104892;1266;59724;-49
2023/03/20 06:03:00;;;;;;;23.20;15.60;;;;;;;;;;104463;1269;59528;-48
2023/03/20 06:05:41;;;;;;;27.80;16.90;;;;;;;;;;104444;1271;61601;-49
2023/03/20 06:08:09;;;;;;;23.00;16.30;;;;;;;;;;105161;1264;60531;-48
2023/03/20 06:10:38;;;;;;;26.60;17.30;;;;;;;;;;108548;1263;60767;-50
2023/03/20 06:13:09;;;;;;;29.30;18.10;;;;;;;;;;108482;1264;57518;-50
2023/03/20 06:15:38;;;;;;;30.20;20.40;;;;;;;;;;108584;1262;57464;-49
2023/03/20 06:18:12;;;;;;;25.10;17.90;;;;;;;;;;108475;1263;60246;-49
2023/03/20 06:20:41;;;;;;;27.20;18.90;;;;;;;;;;108479;1263;58073;-49
2023/03/20 06:23:09;;;;;;;25.20;18.40;;;;;;;;;;108442;1263;60663;-49
2023/03/20 06:25:37;;;;;;;26.90;17.90;;;;;;;;;;108393;1262;58235;-50
2023/03/20 06:28:06;;;;;;;28.40;18.30;;;;;;;;;;108519;1263;59309;-49
2023/03/20 06:30:36;;;;;;;30.80;21.10;;;;;;;;;;106430;1263;60096;-47
2023/03/20 06:33:05;;;;;;;33.40;24.50;;;;;;;;;;108570;1262;57659;-49
2023/03/20 06:35:38;;;;;;;29.20;21.50;;;;;;;;;;108540;1267;59926;-49
2023/03/20 06:38:07;;;;;;;30.30;20.00;;;;;;;;;;108570;1263;57749;-47
2023/03/20 06:40:35;;;;;;;30.70;21.40;;;;;;;;;;108558;1263;57358;-47
2023/03/20 06:43:03;;;;;;;36.70;22.30;;;;;;;;;;108444;1263;60080;-47
2023/03/20 06:45:42;;;;;;;28.60;21.00;;;;;;;;;;108405;1264;57440;-47
2023/03/20 06:48:22;;;;;;;28.30;19.40;;;;;;;;;;108464;1264;60850;-49
2023/03/20 06:50:51;;;;;;;31.80;22.00;;;;;;;;;;108334;1263;57717;-49
2023/03/20 06:53:21;;;;;;;34.00;23.70;;;;;;;;;;108332;1264;57835;-49
2023/03/20 06:55:59;;;;;;;34.40;23.20;;;;;;;;;;108421;1262;60579;-49
2023/03/20 06:58:27;;;;;;;33.50;23.40;;;;;;;;;;108285;1263;57532;-49
2023/03/20 07:01:02;;;;;;;35.80;23.60;;;;;;;;;;108477;1262;59594;-49
2023/03/20 07:03:31;;;;;;;29.80;23.00;;;;;;;;;;106252;1263;59691;-45
2023/03/20 07:05:59;;;;;;;29.80;19.70;;;;;;;;;;107075;1268;57696;-47
2023/03/20 07:08:30;;;;;;;28.90;19.00;;;;;;;;;;105619;1257;61532;-48
2023/03/20 07:11:03;;;;;;;24.60;18.50;;;;;;;;;;105168;1256;59595;-47
2023/03/20 07:13:31;;;;;;;24.10;17.40;;;;;;;;;;106092;1256;60766;-48
2023/03/20 07:16:21;;;;;;;20.80;14.50;;;;;;;;;;105063;1259;59932;-47
2023/03/20 07:18:49;;;;;;;20.30;14.60;;;;;;;;;;105325;1257;59118;-47
2023/03/20 07:21:19;;;;;;;21.30;14.10;;;;;;;;;;105344;1251;60160;-49
2023/03/20 07:23:47;;;;;;;21.00;14.50;;;;;;;;;;105062;1252;59724;-47
2023/03/20 07:26:15;;;;;;;19.70;11.60;;;;;;;;;;107327;1254;60775;-48
2023/03/20 07:28:44;;;;;;;18.00;12.70;;;;;;;;;;105273;1257;59669;-48
2023/03/20 07:31:24;;;;;;;15.40;11.40;;;;;;;;;;106908;1254;59509;-47
2023/03/20 07:34:07;;;;;;;17.60;12.00;;;;;;;;;;105316;1256;61544;-47
2023/03/20 07:36:36;;;;;;;26.00;16.00;;;;;;;;;;105709;1251;59705;-48
2023/03/20 07:39:05;;;;;;;19.40;14.30;;;;;;;;;;104963;1253;59771;-47
2023/03/20 07:41:35;;;;;;;11.10;8.40;;;;;;;;;;105683;1257;59590;-47
2023/03/20 07:44:07;;;;;;;10.00;8.00;;;;;;;;;;105797;1251;60854;-47
2023/03/20 07:46:48;;;;;;;12.00;8.70;;;;;;;;;;109131;1253;61153;-50
2023/03/20 07:49:19;;;;;;;11.10;7.60;;;;;;;;;;109114;1251;57736;-50
2023/03/20 07:51:47;;;;;;;9.30;7.40;;;;;;;;;;105728;1256;59729;-47
2023/03/20 07:54:15;;;;;;;9.40;8.20;;;;;;;;;;105682;1255;59734;-49
2023/03/20 07:56:44;;;;;;;11.40;8.50;;;;;;;;;;105796;1256;59663;-49
2023/03/20 07:59:12;;;;;;;16.60;9.70;;;;;;;;;;109063;1251;61338;-48
2023/03/20 08:01:40;;;;;;;11.60;8.20;;;;;;;;;;107401;1255;59471;-48
2023/03/20 08:04:08;;;;;;;11.70;7.70;;;;;;;;;;105694;1257;60498;-48
2023/03/20 08:06:38;;;;;;;12.90;7.40;;;;;;;;;;105869;1256;59720;-48
2023/03/20 08:09:06;;;;;;;9.10;7.00;;;;;;;;;;106753;1255;59538;-48
2023/03/20 08:11:34;;;;;;;12.70;7.60;;;;;;;;;;105940;1252;61246;-48
2023/03/20 08:14:02;;;;;;;9.10;7.20;;;;;;;;;;105752;1256;59612;-49
2023/03/20 08:16:30;;;;;;;13.30;8.90;;;;;;;;;;105707;1252;60758;-48
2023/03/20 08:19:04;;;;;;;14.20;9.80;;;;;;;;;;106540;1255;60958;-48
2023/03/20 08:21:33;;;;;;;11.30;8.20;;;;;;;;;;105702;1257;59627;-47
2023/03/20 08:24:01;;;;;;;12.60;8.70;;;;;;;;;;106559;1256;61223;-48
2023/03/20 08:26:30;;;;;;;13.50;9.80;;;;;;;;;;107427;1253;60005;-47
2023/03/20 08:28:58;;;;;;;9.00;6.20;;;;;;;;;;105610;1257;60539;-48
2023/03/20 08:31:29;;;;;;;6.30;5.60;;;;;;;;;;105797;1256;59707;-48
2023/03/20 08:33:56;;;;;;;11.20;7.20;;;;;;;;;;105808;1255;59598;-50
2023/03/20 08:36:24;;;;;;;11.40;7.30;;;;;;;;;;105993;1252;61195;-49
2023/03/20 08:38:53;;;;;;;8.70;6.70;;;;;;;;;;105706;1257;59513;-49
2023/03/20 08:41:21;;;;;;;10.40;8.20;;;;;;;;;;105965;1257;60905;-46
2023/03/20 08:43:49;;;;;;;8.60;6.60;;;;;;;;;;106003;1256;59711;-49
2023/03/20 08:46:17;;;;;;;10.90;9.00;;;;;;;;;;109207;1251;58471;-50
2023/03/20 08:48:46;;;;;;;8.60;6.40;;;;;;;;;;108906;1254;61628;-47
2023/03/20 08:51:13;;;;;;;8.40;6.70;;;;;;;;;;106080;1253;59649;-48
2023/03/20 08:53:41;;;;;;;7.90;7.00;;;;;;;;;;105987;1257;60462;-49
2023/03/20 08:56:10;;;;;;;7.40;6.60;;;;;;;;;;105605;1253;59706;-48
2023/03/20 08:58:38;;;;;;;8.10;6.50;;;;;;;;;;109194;1251;58088;-49
2023/03/20 09:01:07;;;;;;;6.30;5.50;;;;;;;;;;105924;1256;60046;-46
2023/03/20 09:03:35;;;;;;;8.60;5.40;;;;;;;;;;108591;1256;59608;-47
2023/03/20 09:06:04;;;;;;;10.30;6.90;;;;;;;;;;105633;1256;59628;-47
2023/03/20 09:08:32;;;;;;;8.90;6.70;;;;;;;;;;105511;1256;62118;-49
2023/03/20 09:11:02;;;;;;;8.60;4.80;;;;;;;;;;109031;1251;61957;-50
2023/03/20 09:13:30;;;;;;;6.60;5.90;;;;;;;;;;106314;1255;62069;-48
2023/03/20 09:15:58;;;;;;;10.70;6.10;;;;;;;;;;105626;1257;59650;-48
2023/03/20 09:18:25;;;;;;;6.20;5.60;;;;;;;;;;105577;1257;60843;-46
2023/03/20 09:20:55;;;;;;;8.20;6.40;;;;;;;;;;109153;1251;57615;-50
2023/03/20 09:23:23;;;;;;;6.40;4.90;;;;;;;;;;109152;1255;62289;-50
2023/03/20 09:25:51;;;;;;;6.50;5.50;;;;;;;;;;109259;1251;60325;-49
2023/03/20 09:28:19;;;;;;;8.00;6.80;;;;;;;;;;109159;1256;58960;-49
2023/03/20 09:30:47;;;;;;;6.90;5.00;;;;;;;;;;107957;1254;61082;-49
2023/03/20 09:33:17;;;;;;;6.70;5.80;;;;;;;;;;105594;1252;59666;-49
2023/03/20 09:35:45;;;;;;;11.70;5.20;;;;;;;;;;109307;1251;57386;-50
2023/03/20 09:38:14;;;;;;;7.20;6.50;;;;;;;;;;109079;1254;61516;-50
2023/03/20 09:40:55;;;;;;;7.80;7.00;;;;;;;;;;109205;1251;57426;-50
2023/03/20 09:43:42;;;;;;;9.70;7.40;;;;;;;;;;109040;1257;60948;-50
2023/03/20 09:46:21;;;;;;;8.10;6.00;;;;;;;;;;109247;1251;58344;-50
2023/03/20 09:49:07;;;;;;;7.70;6.40;;;;;;;;;;109234;1251;59219;-50
2023/03/20 09:51:56;;;;;;;10.90;6.20;;;;;;;;;;109185;1251;60854;-50
2023/03/20 09:54:28;;;;;;;7.90;6.70;;;;;;;;;;109086;1251;60592;-50
2023/03/20 09:57:02;;;;;;;9.20;7.50;;;;;;;;;;109269;1251;60476;-49
2023/03/20 09:59:31;;;;;;;10.70;8.20;;;;;;;;;;109195;1251;60061;-50
2023/03/20 10:02:03;;;;;;;7.40;6.70;;;;;;;;;;109279;1251;58665;-50
2023/03/20 10:04:31;;;;;;;8.40;7.10;;;;;;;;;;109316;1252;62439;-49
2023/03/20 10:07:02;;;;;;;7.00;6.30;;;;;;;;;;109118;1257;58208;-50
2023/03/20 10:09:31;;;;;;;8.30;6.50;;;;;;;;;;109246;1252;60771;-50
2023/03/20 10:12:07;;;;;;;7.50;6.00;;;;;;;;;;106654;1260;60497;-49
2023/03/20 10:14:41;;;;;;;11.70;9.90;;;;;;;;;;106768;1254;60412;-48
2023/03/20 10:17:18;;;;;;;8.00;7.30;;;;;;;;;;105746;1257;62265;-50
2023/03/20 10:19:49;;;;;;;6.90;6.30;;;;;;;;;;105713;1257;60513;-49
2023/03/20 10:22:25;;;;;;;8.10;6.40;;;;;;;;;;105688;1256;60606;-47
2023/03/20 10:24:53;;;;;;;6.60;4.90;;;;;;;;;;106295;1256;60441;-48
2023/03/20 10:27:25;;;;;;;7.70;6.90;;;;;;;;;;105688;1254;60421;-49
2023/03/20 10:30:03;;;;;;;9.30;6.90;;;;;;;;;;106004;1252;62449;-45
2023/03/20 10:32:39;;;;;;;6.80;6.00;;;;;;;;;;105642;1252;60454;-50
2023/03/20 10:35:16;;;;;;;6.30;5.70;;;;;;;;;;105739;1257;60805;-47
2023/03/20 10:37:53;;;;;;;8.50;5.40;;;;;;;;;;106117;1256;60421;-49
2023/03/20 10:40:25;;;;;;;9.10;7.10;;;;;;;;;;106243;1256;60773;-49
2023/03/20 10:42:58;;;;;;;6.10;5.40;;;;;;;;;;106579;1251;61872;-48
2023/03/20 10:45:37;;;;;;;7.20;5.50;;;;;;;;;;105679;1251;60722;-48
2023/03/20 10:48:14;;;;;;;6.40;5.70;;;;;;;;;;106150;1259;60534;-50
2023/03/20 10:50:44;;;;;;;6.20;5.70;;;;;;;;;;106107;1251;60718;-46
2023/03/20 10:53:17;;;;;;;8.00;5.60;;;;;;;;;;105551;1255;60322;-49
2023/03/20 10:55:47;;;;;;;7.40;5.80;;;;;;;;;;105030;1254;61943;-48
2023/03/20 10:58:19;;;;;;;10.90;6.00;;;;;;;;;;107710;1256;58416;-48
2023/03/20 11:00:52;;;;;;;6.40;5.20;;;;;;;;;;105747;1252;60811;-49
2023/03/20 11:03:25;;;;;;;5.70;5.20;;;;;;;;;;105482;1257;60565;-49
2023/03/20 11:06:23;;;;;;;7.20;6.20;;;;;;;;;;106459;1257;59767;-50
2023/03/20 11:08:53;;;;;;;6.40;5.20;;;;;;;;;;105068;1251;62341;-48
2023/03/20 11:11:24;;;;;;;6.30;5.20;;;;;;;;;;105519;1252;60312;-49
2023/03/20 11:13:52;;;;;;;7.00;6.40;;;;;;;;;;105417;1251;60792;-48
2023/03/20 11:16:24;;;;;;;8.90;6.20;;;;;;;;;;105936;1256;60412;-49
2023/03/20 11:18:52;;;;;;;7.70;7.00;;;;;;;;;;105216;1255;60306;-47
2023/03/20 11:21:25;;;;;;;8.40;7.60;;;;;;;;;;105632;1256;62500;-48
2023/03/20 11:23:53;;;;;;;8.30;7.00;;;;;;;;;;106597;1256;60408;-47
2023/03/20 11:26:35;;;;;;;8.00;7.20;;;;;;;;;;105515;1255;60702;-49
2023/03/20 11:29:15;;;;;;;7.60;6.40;;;;;;;;;;105659;1256;60663;-50
2023/03/20 11:31:43;;;;;;;7.40;6.00;;;;;;;;;;105940;1251;60894;-50
2023/03/20 11:34:11;;;;;;;8.60;7.10;;;;;;;;;;107782;1254;62250;-49
2023/03/20 11:37:06;;;;;;;6.10;5.50;;;;;;;;;;105704;1251;60430;-49
2023/03/20 11:39:38;;;;;;;9.00;7.50;;;;;;;;;;105667;1255;60533;-48
2023/03/20 11:42:23;;;;;;;8.60;7.70;;;;;;;;;;105636;1253;60440;-50
2023/03/20 11:44:55;;;;;;;11.10;7.30;;;;;;;;;;105664;1258;60383;-50
2023/03/20 11:47:24;;;;;;;11.10;7.40;;;;;;;;;;106028;1254;62334;-50
2023/03/20 11:49:59;;;;;;;10.30;8.50;;;;;;;;;;105733;1257;60525;-49
2023/03/20 11:52:29;;;;;;;11.70;8.10;;;;;;;;;;106292;1253;60969;-47
2023/03/20 11:54:58;;;;;;;10.50;9.40;;;;;;;;;;106104;1257;60408;-49
2023/03/20 11:57:33;;;;;;;11.40;9.10;;;;;;;;;;105821;1254;60426;-48
2023/03/20 12:00:02;;;;;;;13.50;10.60;;;;;;;;;;105622;1256;61971;-49
2023/03/20 12:02:40;;;;;;;13.70;10.30;;;;;;;;;;105693;1257;60516;-50
2023/03/20 12:05:30;;;;;;;13.30;8.60;;;;;;;;;;105685;1258;60794;-49
2023/03/20 12:08:07;;;;;;;12.80;10.30;;;;;;;;;;105731;1251;60851;-50
2023/03/20 12:10:38;;;;;;;14.60;12.70;;;;;;;;;;105420;1256;60328;-48
2023/03/20 12:13:11;;;;;;;21.90;14.10;;;;;;;;;;105328;1251;62042;-47
2023/03/20 12:15:41;;;;;;;18.90;15.40;;;;;;;;;;105359;1256;60511;-49
2023/03/20 12:18:15;;;;;;;16.00;13.70;;;;;;;;;;109300;1251;60796;-50
2023/03/20 12:20:49;;;;;;;14.00;12.50;;;;;;;;;;109144;1257;59696;-50
2023/03/20 12:23:21;;;;;;;16.80;13.30;;;;;;;;;;109283;1251;59440;-50
2023/03/20 12:25:52;;;;;;;18.00;14.60;;;;;;;;;;109088;1251;62039;-50
2023/03/20 12:28:37;;;;;;;25.20;17.10;;;;;;;;;;109173;1254;58361;-50
2023/03/20 12:31:19;;;;;;;19.50;15.90;;;;;;;;;;109203;1251;61318;-50
2023/03/20 12:33:49;;;;;;;19.60;15.20;;;;;;;;;;109081;1251;58369;-50
2023/03/20 12:36:17;;;;;;;21.90;17.00;;;;;;;;;;109235;1251;58549;-50
2023/03/20 12:38:45;;;;;;;21.10;16.30;;;;;;;;;;109166;1254;62755;-50
2023/03/20 12:41:19;;;;;;;21.90;17.50;;;;;;;;;;109093;1251;58198;-50
2023/03/20 12:44:10;;;;;;;20.70;15.80;;;;;;;;;;109142;1251;59713;-50
2023/03/20 12:46:43;;;;;;;20.60;13.30;;;;;;;;;;109022;1251;59682;-51
2023/03/20 12:49:30;;;;;;;30.90;14.50;;;;;;;;;;109215;1257;58309;-50
2023/03/20 12:52:07;;;;;;;16.60;14.20;;;;;;;;;;109189;1251;61921;-50
2023/03/20 12:54:54;;;;;;;15.70;12.60;;;;;;;;;;109355;1251;58297;-50
2023/03/20 12:57:31;;;;;;;17.10;14.70;;;;;;;;;;109205;1256;60639;-50
2023/03/20 12:59:59;;;;;;;16.10;13.30;;;;;;;;;;109266;1251;59101;-51
2023/03/20 13:02:33;;;;;;;14.40;12.60;;;;;;;;;;109285;1251;58344;-51
2023/03/20 13:05:14;;;;;;;16.30;14.30;;;;;;;;;;109249;1251;61863;-50
2023/03/20 13:08:03;;;;;;;15.40;12.90;;;;;;;;;;108886;1251;59806;-49
2023/03/20 13:10:34;;;;;;;13.40;12.10;;;;;;;;;;105365;1256;60643;-49
2023/03/20 13:13:23;;;;;;;16.90;15.10;;;;;;;;;;105475;1256;60747;-48
2023/03/20 13:15:54;;;;;;;16.60;14.20;;;;;;;;;;105491;1251;60326;-48
2023/03/20 13:18:32;;;;;;;18.40;14.50;;;;;;;;;;105103;1251;62022;-49
2023/03/20 13:21:01;;;;;;;14.90;12.90;;;;;;;;;;105122;1258;61421;-49
2023/03/20 13:23:37;;;;;;;14.70;11.50;;;;;;;;;;105528;1256;60550;-48
2023/03/20 13:26:08;;;;;;;13.30;11.50;;;;;;;;;;105601;1251;59892;-49
2023/03/20 13:28:56;;;;;;;14.00;12.20;;;;;;;;;;105475;1256;60517;-49
2023/03/20 13:31:42;;;;;;;12.60;10.90;;;;;;;;;;105603;1256;62343;-49
2023/03/20 13:34:36;;;;;;;13.70;12.30;;;;;;;;;;105544;1255;60406;-49
2023/03/20 13:37:08;;;;;;;20.70;13.50;;;;;;;;;;105358;1251;61007;-49
2023/03/20 13:39:59;;;;;;;18.90;11.70;;;;;;;;;;105608;1256;60533;-48
2023/03/20 13:42:49;;;;;;;15.60;12.60;;;;;;;;;;105642;1251;60329;-49
2023/03/20 13:45:24;;;;;;;16.30;12.60;;;;;;;;;;105600;1251;62129;-49
2023/03/20 13:47:52;;;;;;;13.40;11.80;;;;;;;;;;105664;1256;61697;-49
2023/03/20 13:50:43;;;;;;;14.20;12.20;;;;;;;;;;105408;1256;60437;-49
2023/03/20 13:53:23;;;;;;;14.70;13.10;;;;;;;;;;105420;1256;62116;-49
2023/03/20 13:55:57;;;;;;;21.90;13.00;;;;;;;;;;104998;1255;60366;-49
2023/03/20 13:58:31;;;;;;;20.70;13.50;;;;;;;;;;105225;1251;62104;-49
2023/03/20 14:01:14;;;;;;;14.70;13.20;;;;;;;;;;105517;1257;60328;-48
2023/03/20 14:03:44;;;;;;;13.90;12.50;;;;;;;;;;106791;1251;60987;-49
2023/03/20 14:06:15;;;;;;;16.70;12.30;;;;;;;;;;106137;1251;60398;-49
2023/03/20 14:08:48;;;;;;;12.10;10.80;;;;;;;;;;104495;1255;60287;-49
2023/03/20 14:11:20;;;;;;;14.90;13.10;;;;;;;;;;105003;1251;60999;-49
2023/03/20 14:13:55;;;;;;;16.00;13.60;;;;;;;;;;105183;1251;60444;-50
2023/03/20 14:16:25;;;;;;;12.20;10.70;;;;;;;;;;105690;1256;60475;-49
2023/03/20 14:19:07;;;;;;;14.50;11.10;;;;;;;;;;105437;1257;60530;-49
2023/03/20 14:21:35;;;;;;;13.90;11.80;;;;;;;;;;109249;1251;58222;-49
2023/03/20 14:24:04;;;;;;;15.80;12.40;;;;;;;;;;107480;1251;62097;-49
2023/03/20 14:26:36;;;;;;;15.70;13.10;;;;;;;;;;105729;1251;60682;-49
2023/03/20 14:29:10;;;;;;;14.40;12.90;;;;;;;;;;105320;1257;60447;-49
2023/03/20 14:31:40;;;;;;;14.10;11.80;;;;;;;;;;105529;1257;60431;-49
2023/03/20 14:34:16;;;;;;;13.60;11.80;;;;;;;;;;105240;1253;60588;-49
2023/03/20 14:36:45;;;;;;;15.50;13.00;;;;;;;;;;105441;1253;62453;-49
2023/03/20 14:39:14;;;;;;;14.60;11.90;;;;;;;;;;104923;1258;60567;-49
2023/03/20 14:42:04;;;;;;;15.80;14.00;;;;;;;;;;104853;1254;61121;-49
2023/03/20 14:44:50;;;;;;;17.10;12.60;;;;;;;;;;105099;1257;60497;-49
2023/03/20 14:47:37;;;;;;;16.20;13.50;;;;;;;;;;104989;1252;60527;-49
2023/03/20 14:50:22;;;;;;;14.90;11.90;;;;;;;;;;105166;1254;62176;-50